sensor_id;sensor_type;location;lat;lon;timestamp;pressure;altitude;pressure_sealevel;temperature;humidity
29879;BME280;16752;53.364;-1.488;2023-05-21T00:01:52;101253.34;;;17.87;40.53
29879;BME280;16752;53.364;-1.488;2023-05-21T00:08:27;101221.72;;;17.63;40.95
29879;BME280;16752;53.364;-1.488;2023-05-21T00:34:29;101379.50;;;18.32;41.16
29879;BME280;16752;53.364;-1.488;2023-05-21T00:54:06;101384.75;;;18.12;41.43
29879;BME280;16752;53.364;-1.488;2023-05-21T01:05:00;101282.06;;;17.48;41.46
29879;BME280;16752;53.364;-1.488;2023-05-21T01:08:44;101210.88;;;17.00;41.63
29879;BME280;16752;53.364;-1.488;2023-05-21T01:11:47;101381.53;;;17.86;41.73
29879;BME280;16752;53.364;-1.488;2023-05-21T01:14:54;101369.50;;;17.82;42.44
29879;BME280;16752;53.364;-1.488;2023-05-21T01:18:10;101377.09;;;17.86;41.83
29879;BME280;16752;53.364;-1.488;2023-05-21T01:35:42;101213.16;;;16.71;41.98
29879;BME280;16752;53.364;-1.488;2023-05-21T01:42:11;101174.38;;;16.48;42.29
29879;BME280;16752;53.364;-1.488;2023-05-21T01:45:00;101210.53;;;16.71;42.15
29879;BME280;16752;53.364;-1.488;2023-05-21T01:47:53;101184.94;;;16.48;42.09
29879;BME280;16752;53.364;-1.488;2023-05-21T01:50:45;101311.72;;;17.20;41.98
29879;BME280;16752;53.364;-1.488;2023-05-21T01:57:31;101356.25;;;17.48;42.74
29879;BME280;16752;53.364;-1.488;2023-05-21T02:00:48;101351.66;;;17.50;42.19
29879;BME280;16752;53.364;-1.488;2023-05-21T02:03:54;101248.75;;;16.90;42.26
29879;BME280;16752;53.364;-1.488;2023-05-21T02:06:59;101201.69;;;16.60;42.10
29879;BME280;16752;53.364;-1.488;2023-05-21T02:09:49;101182.94;;;16.52;42.12
29879;BME280;16752;53.364;-1.488;2023-05-21T02:12:37;101183.91;;;16.50;42.23
29879;BME280;16752;53.364;-1.488;2023-05-21T02:15:24;101195.91;;;16.55;42.06
29879;BME280;16752;53.364;-1.488;2023-05-21T02:18:13;101203.84;;;16.66;42.00
29879;BME280;16752;53.364;-1.488;2023-05-21T02:21:03;101209.56;;;16.72;41.99
29879;BME280;16752;53.364;-1.488;2023-05-21T02:24:23;101330.25;;;17.42;42.37
29879;BME280;16752;53.364;-1.488;2023-05-21T02:31:27;101275.97;;;17.14;42.17
29879;BME280;16752;53.364;-1.488;2023-05-21T02:34:34;101280.19;;;17.17;42.30
29879;BME280;16752;53.364;-1.488;2023-05-21T02:37:49;101226.50;;;16.81;42.24
29879;BME280;16752;53.364;-1.488;2023-05-21T02:40:45;101320.97;;;17.36;42.40
29879;BME280;16752;53.364;-1.488;2023-05-21T02:47:56;101222.66;;;16.74;42.47
29879;BME280;16752;53.364;-1.488;2023-05-21T02:50:56;101261.66;;;16.94;42.56
29879;BME280;16752;53.364;-1.488;2023-05-21T02:54:03;101169.44;;;16.43;42.73
29879;BME280;16752;53.364;-1.488;2023-05-21T02:56:57;101324.22;;;17.29;43.28
29879;BME280;16752;53.364;-1.488;2023-05-21T02:59:41;101269.25;;;16.64;43.52
29879;BME280;16752;53.364;-1.488;2023-05-21T03:02:25;101158.03;;;16.32;42.88
29879;BME280;16752;53.364;-1.488;2023-05-21T03:05:16;101317.00;;;17.31;42.70
29879;BME280;16752;53.364;-1.488;2023-05-21T03:08:46;101164.16;;;16.32;42.58
29879;BME280;16752;53.364;-1.488;2023-05-21T03:11:38;101147.28;;;16.22;43.02
29879;BME280;16752;53.364;-1.488;2023-05-21T03:14:52;101316.03;;;17.21;42.59
29879;BME280;16752;53.364;-1.488;2023-05-21T03:18:16;101212.03;;;16.52;42.55
29879;BME280;16752;53.364;-1.488;2023-05-21T03:21:33;101137.16;;;16.05;42.45
29879;BME280;16752;53.364;-1.488;2023-05-21T03:24:46;101310.50;;;17.01;42.64
29879;BME280;16752;53.364;-1.488;2023-05-21T03:27:38;101232.72;;;16.58;42.58
29879;BME280;16752;53.364;-1.488;2023-05-21T03:34:18;101300.63;;;16.92;42.34
29879;BME280;16752;53.364;-1.488;2023-05-21T03:42:03;101138.31;;;15.78;43.59
29879;BME280;16752;53.364;-1.488;2023-05-21T03:53:02;101300.59;;;16.81;43.01
29879;BME280;16752;53.364;-1.488;2023-05-21T04:00:51;101267.09;;;16.58;42.87
29879;BME280;16752;53.364;-1.488;2023-05-21T04:08:11;101303.97;;;16.72;43.53
29879;BME280;16752;53.364;-1.488;2023-05-21T04:15:29;101317.06;;;16.73;44.12
29879;BME280;16752;53.364;-1.488;2023-05-21T04:18:58;101132.28;;;15.76;43.23
29879;BME280;16752;53.364;-1.488;2023-05-21T04:22:15;101244.44;;;16.42;43.02
29879;BME280;16752;53.364;-1.488;2023-05-21T04:25:07;101236.03;;;16.37;43.37
29879;BME280;16752;53.364;-1.488;2023-05-21T04:31:30;101192.75;;;16.27;42.98
29879;BME280;16752;53.364;-1.488;2023-05-21T04:34:52;101297.47;;;16.87;43.03
29879;BME280;16752;53.364;-1.488;2023-05-21T04:41:08;101297.03;;;16.93;42.78
29879;BME280;16752;53.364;-1.488;2023-05-21T04:44:09;101288.56;;;16.88;42.98
29879;BME280;16752;53.364;-1.488;2023-05-21T04:47:25;101220.44;;;16.57;43.64
29879;BME280;16752;53.364;-1.488;2023-05-21T04:50:15;101181.34;;;16.38;42.92
29879;BME280;16752;53.364;-1.488;2023-05-21T04:53:03;101294.59;;;17.01;42.95
29879;BME280;16752;53.364;-1.488;2023-05-21T04:55:55;101202.97;;;16.43;42.92
29879;BME280;16752;53.364;-1.488;2023-05-21T04:58:45;101222.38;;;16.55;43.04
29879;BME280;16752;53.364;-1.488;2023-05-21T05:01:32;101287.38;;;17.03;43.03
29879;BME280;16752;53.364;-1.488;2023-05-21T05:04:18;101223.56;;;16.62;43.09
29879;BME280;16752;53.364;-1.488;2023-05-21T05:07:02;101285.94;;;17.10;42.86
29879;BME280;16752;53.364;-1.488;2023-05-21T05:09:49;101194.34;;;16.52;42.95
29879;BME280;16752;53.364;-1.488;2023-05-21T05:12:34;101195.91;;;16.55;43.14
29879;BME280;16752;53.364;-1.488;2023-05-21T05:15:18;101162.22;;;16.34;43.50
29879;BME280;16752;53.364;-1.488;2023-05-21T05:18:03;101206.53;;;16.77;43.15
29879;BME280;16752;53.364;-1.488;2023-05-21T05:20:47;101290.03;;;17.37;43.06
29879;BME280;16752;53.364;-1.488;2023-05-21T05:23:32;101239.03;;;17.01;43.10
29879;BME280;16752;53.364;-1.488;2023-05-21T05:26:19;101238.06;;;17.02;43.53
29879;BME280;16752;53.364;-1.488;2023-05-21T05:29:04;101225.28;;;17.07;43.23
29879;BME280;16752;53.364;-1.488;2023-05-21T05:31:48;101186.91;;;16.91;42.92
29879;BME280;16752;53.364;-1.488;2023-05-21T05:34:32;101208.47;;;16.97;43.00
29879;BME280;16752;53.364;-1.488;2023-05-21T05:37:16;101180.06;;;16.88;42.88
29879;BME280;16752;53.364;-1.488;2023-05-21T05:40:00;101135.09;;;16.77;42.73
29879;BME280;16752;53.364;-1.488;2023-05-21T05:42:45;101218.88;;;17.32;42.68
29879;BME280;16752;53.364;-1.488;2023-05-21T05:45:29;101213.63;;;17.21;43.13
29879;BME280;16752;53.364;-1.488;2023-05-21T05:48:13;101288.06;;;17.84;42.94
29879;BME280;16752;53.364;-1.488;2023-05-21T05:50:58;101290.19;;;17.90;42.22
29879;BME280;16752;53.364;-1.488;2023-05-21T05:53:42;101293.56;;;17.92;42.14
29879;BME280;16752;53.364;-1.488;2023-05-21T05:56:26;101199.72;;;17.40;42.30
29879;BME280;16752;53.364;-1.488;2023-05-21T05:59:10;101188.44;;;17.38;42.42
29879;BME280;16752;53.364;-1.488;2023-05-21T06:01:54;101290.41;;;17.98;42.28
29879;BME280;16752;53.364;-1.488;2023-05-21T06:04:38;101233.66;;;17.57;42.48
29879;BME280;16752;53.364;-1.488;2023-05-21T06:07:22;101130.75;;;16.98;42.14
29879;BME280;16752;53.364;-1.488;2023-05-21T06:10:07;101287.75;;;17.98;43.16
29879;BME280;16752;53.364;-1.488;2023-05-21T06:12:52;101192.72;;;17.50;42.25
29879;BME280;16752;53.364;-1.488;2023-05-21T06:15:39;101245.50;;;17.85;42.42
29879;BME280;16752;53.364;-1.488;2023-05-21T06:18:25;101231.22;;;17.65;42.75
29879;BME280;16752;53.364;-1.488;2023-05-21T06:21:09;101231.28;;;17.86;42.39
29879;BME280;16752;53.364;-1.488;2023-05-21T06:24:20;101299.00;;;18.43;41.63
29879;BME280;16752;53.364;-1.488;2023-05-21T06:27:39;101159.44;;;17.68;41.41
29879;BME280;16752;53.364;-1.488;2023-05-21T06:30:55;101250.66;;;18.40;41.21
29879;BME280;16752;53.364;-1.488;2023-05-21T06:33:43;101323.75;;;18.85;41.57
29879;BME280;16752;53.364;-1.488;2023-05-21T06:37:01;101320.25;;;19.06;40.90
29879;BME280;16752;53.364;-1.488;2023-05-21T06:40:17;101181.19;;;18.25;40.40
29879;BME280;16752;53.364;-1.488;2023-05-21T06:43:12;101175.91;;;18.25;39.95
29879;BME280;16752;53.364;-1.488;2023-05-21T06:49:49;101145.44;;;18.50;38.96
29879;BME280;16752;53.364;-1.488;2023-05-21T06:56:15;101249.69;;;19.13;38.84
29879;BME280;16752;53.364;-1.488;2023-05-21T06:59:00;101193.22;;;18.80;37.75
29879;BME280;16752;53.364;-1.488;2023-05-21T07:01:51;101171.69;;;19.14;37.56
29879;BME280;16752;53.364;-1.488;2023-05-21T07:04:45;101328.84;;;20.19;37.17
29879;BME280;16752;53.364;-1.488;2023-05-21T07:07:40;101279.28;;;20.18;36.24
29879;BME280;16752;53.364;-1.488;2023-05-21T07:10:49;101324.38;;;20.48;35.73
29879;BME280;16752;53.364;-1.488;2023-05-21T07:13:37;101321.00;;;20.65;36.01
29879;BME280;16752;53.364;-1.488;2023-05-21T07:16:23;101157.09;;;19.77;34.72
29879;BME280;16752;53.364;-1.488;2023-05-21T07:19:13;101326.13;;;20.96;34.71
29879;BME280;16752;53.364;-1.488;2023-05-21T07:21:57;101279.00;;;20.96;34.00
29879;BME280;16752;53.364;-1.488;2023-05-21T07:25:16;101175.19;;;20.40;33.47
29879;BME280;16752;53.364;-1.488;2023-05-21T07:28:10;101231.94;;;20.87;33.10
29879;BME280;16752;53.364;-1.488;2023-05-21T07:31:03;101213.59;;;20.84;32.70
29879;BME280;16752;53.364;-1.488;2023-05-21T07:33:47;101258.22;;;21.10;33.04
29879;BME280;16752;53.364;-1.488;2023-05-21T07:36:33;101227.78;;;21.12;33.41
29879;BME280;16752;53.364;-1.488;2023-05-21T07:39:30;101137.88;;;20.59;33.13
29879;BME280;16752;53.364;-1.488;2023-05-21T07:42:39;101247.50;;;21.29;33.30
29879;BME280;16752;53.364;-1.488;2023-05-21T07:45:58;101190.25;;;21.51;31.49
29879;BME280;16752;53.364;-1.488;2023-05-21T07:48:48;101274.41;;;22.34;30.05
29879;BME280;16752;53.364;-1.488;2023-05-21T07:55:01;101209.47;;;22.34;28.36
29879;BME280;16752;53.364;-1.488;2023-05-21T08:02:01;101205.16;;;22.59;28.62
29879;BME280;16752;53.364;-1.488;2023-05-21T08:04:56;101270.19;;;23.01;28.96
29879;BME280;16752;53.364;-1.488;2023-05-21T08:07:41;101276.66;;;23.25;27.86
29879;BME280;16752;53.364;-1.488;2023-05-21T08:10:32;101320.47;;;23.74;28.47
29879;BME280;16752;53.364;-1.488;2023-05-21T08:24:02;101320.53;;;23.98;26.13
29879;BME280;16752;53.364;-1.488;2023-05-21T08:27:04;101281.00;;;23.76;25.92
29879;BME280;16752;53.364;-1.488;2023-05-21T08:30:04;101188.19;;;23.68;27.03
29879;BME280;16752;53.364;-1.488;2023-05-21T08:41:10;101307.00;;;24.24;27.96
29879;BME280;16752;53.364;-1.488;2023-05-21T08:44:12;101173.47;;;24.37;25.69
29879;BME280;16752;53.364;-1.488;2023-05-21T08:47:24;101218.94;;;24.62;24.82
29879;BME280;16752;53.364;-1.488;2023-05-21T08:50:15;101309.91;;;25.27;26.29
29879;BME280;16752;53.364;-1.488;2023-05-21T09:00:13;101214.38;;;25.26;24.58
29879;BME280;16752;53.364;-1.488;2023-05-21T09:03:17;101209.25;;;25.70;23.16
29879;BME280;16752;53.364;-1.488;2023-05-21T09:06:25;101176.88;;;25.18;23.37
29879;BME280;16752;53.364;-1.488;2023-05-21T09:09:32;101240.97;;;24.88;23.84
29879;BME280;16752;53.364;-1.488;2023-05-21T09:12:40;101246.53;;;25.88;24.29
29879;BME280;16752;53.364;-1.488;2023-05-21T09:15:25;101160.81;;;25.41;22.78
29879;BME280;16752;53.364;-1.488;2023-05-21T09:18:42;101147.38;;;25.64;22.17
29879;BME280;16752;53.364;-1.488;2023-05-21T09:21:28;101178.22;;;25.91;22.88
29879;BME280;16752;53.364;-1.488;2023-05-21T09:24:39;101247.03;;;26.29;21.66
29879;BME280;16752;53.364;-1.488;2023-05-21T09:27:45;101292.63;;;26.60;23.21
29879;BME280;16752;53.364;-1.488;2023-05-21T09:30:33;101243.38;;;26.45;23.20
29879;BME280;16752;53.364;-1.488;2023-05-21T09:33:27;101285.06;;;26.41;22.46
29879;BME280;16752;53.364;-1.488;2023-05-21T09:36:19;101280.88;;;26.15;24.93
29879;BME280;16752;53.364;-1.488;2023-05-21T09:39:06;101185.19;;;26.00;23.42
29879;BME280;16752;53.364;-1.488;2023-05-21T09:41:57;101203.22;;;26.29;21.74
29879;BME280;16752;53.364;-1.488;2023-05-21T09:44:57;101254.97;;;26.45;22.46
29879;BME280;16752;53.364;-1.488;2023-05-21T09:47:45;101152.16;;;25.76;23.85
29879;BME280;16752;53.364;-1.488;2023-05-21T09:50:29;101281.34;;;27.09;22.34
29879;BME280;16752;53.364;-1.488;2023-05-21T09:53:34;101151.69;;;26.10;21.26
29879;BME280;16752;53.364;-1.488;2023-05-21T09:56:28;101136.03;;;26.14;21.92
29879;BME280;16752;53.364;-1.488;2023-05-21T09:59:16;101144.94;;;25.31;24.37
29879;BME280;16752;53.364;-1.488;2023-05-21T10:02:22;101188.59;;;25.94;24.10
29879;BME280;16752;53.364;-1.488;2023-05-21T10:05:16;101214.03;;;26.58;23.44
29879;BME280;16752;53.364;-1.488;2023-05-21T10:08:01;101151.19;;;26.44;23.20
29879;BME280;16752;53.364;-1.488;2023-05-21T10:10:52;101178.91;;;26.60;24.03
29879;BME280;16752;53.364;-1.488;2023-05-21T10:13:39;101214.94;;;26.95;22.77
29879;BME280;16752;53.364;-1.488;2023-05-21T10:16:26;101228.31;;;27.03;22.62
29879;BME280;16752;53.364;-1.488;2023-05-21T10:19:14;101123.28;;;26.45;23.64
29879;BME280;16752;53.364;-1.488;2023-05-21T10:22:07;101189.72;;;26.37;23.08
29879;BME280;16752;53.364;-1.488;2023-05-21T10:24:51;101257.88;;;26.73;21.99
29879;BME280;16752;53.364;-1.488;2023-05-21T10:27:36;101259.03;;;27.45;21.58
29879;BME280;16752;53.364;-1.488;2023-05-21T10:36:20;101252.06;;;27.65;22.38
29879;BME280;16752;53.364;-1.488;2023-05-21T10:39:10;101255.91;;;28.20;19.89
29879;BME280;16752;53.364;-1.488;2023-05-21T10:45:58;101255.34;;;27.82;20.16
29879;BME280;16752;53.364;-1.488;2023-05-21T10:59:35;101239.19;;;27.82;21.13
29879;BME280;16752;53.364;-1.488;2023-05-21T11:02:24;101240.84;;;28.53;21.08
29879;BME280;16752;53.364;-1.488;2023-05-21T11:05:09;101241.22;;;27.44;19.85
29879;BME280;16752;53.364;-1.488;2023-05-21T11:07:57;101219.59;;;27.16;20.25
29879;BME280;16752;53.364;-1.488;2023-05-21T11:10:42;101192.44;;;27.89;21.38
29879;BME280;16752;53.364;-1.488;2023-05-21T11:13:44;101182.66;;;28.10;20.23
29879;BME280;16752;53.364;-1.488;2023-05-21T11:19:21;101166.31;;;27.47;22.21
29879;BME280;16752;53.364;-1.488;2023-05-21T11:22:22;101199.06;;;28.15;19.38
29879;BME280;16752;53.364;-1.488;2023-05-21T11:25:17;101135.31;;;27.73;21.31
29879;BME280;16752;53.364;-1.488;2023-05-21T11:28:06;101229.50;;;27.66;22.08
29879;BME280;16752;53.364;-1.488;2023-05-21T11:31:21;101215.78;;;28.04;19.51
29879;BME280;16752;53.364;-1.488;2023-05-21T11:42:56;101136.16;;;26.79;18.51
29879;BME280;16752;53.364;-1.488;2023-05-21T11:45:40;101137.88;;;27.17;18.30
29879;BME280;16752;53.364;-1.488;2023-05-21T11:48:30;101198.34;;;28.55;17.20
29879;BME280;16752;53.364;-1.488;2023-05-21T11:51:15;101215.53;;;28.54;17.52
29879;BME280;16752;53.364;-1.488;2023-05-21T11:54:09;101203.94;;;28.54;16.89
29879;BME280;16752;53.364;-1.488;2023-05-21T11:56:53;101212.78;;;28.82;19.50
29879;BME280;16752;53.364;-1.488;2023-05-21T11:59:37;101223.56;;;29.17;17.74
29879;BME280;16752;53.364;-1.488;2023-05-21T12:02:22;101210.81;;;28.91;18.81
29879;BME280;16752;53.364;-1.488;2023-05-21T12:05:06;101145.97;;;28.71;16.88
29879;BME280;16752;53.364;-1.488;2023-05-21T12:07:52;101173.56;;;27.89;18.30
29879;BME280;16752;53.364;-1.488;2023-05-21T12:10:38;101097.81;;;27.50;20.53
29879;BME280;16752;53.364;-1.488;2023-05-21T12:13:25;101166.59;;;27.74;19.10
29879;BME280;16752;53.364;-1.488;2023-05-21T12:16:18;101147.91;;;28.49;18.71
29879;BME280;16752;53.364;-1.488;2023-05-21T12:19:03;101111.00;;;28.43;18.74
29879;BME280;16752;53.364;-1.488;2023-05-21T12:21:48;101214.84;;;29.08;19.22
29879;BME280;16752;53.364;-1.488;2023-05-21T12:24:47;101160.75;;;26.47;19.79
29879;BME280;16752;53.364;-1.488;2023-05-21T12:27:36;101211.47;;;28.37;19.98
29879;BME280;16752;53.364;-1.488;2023-05-21T12:30:27;101205.91;;;29.08;18.98
29879;BME280;16752;53.364;-1.488;2023-05-21T12:33:14;101117.22;;;28.92;18.62
29879;BME280;16752;53.364;-1.488;2023-05-21T12:36:00;101127.72;;;28.80;18.23
29879;BME280;16752;53.364;-1.488;2023-05-21T12:38:50;101199.84;;;28.99;17.96
29879;BME280;16752;53.364;-1.488;2023-05-21T12:41:34;101204.22;;;28.66;19.41
29879;BME280;16752;53.364;-1.488;2023-05-21T12:44:21;101162.53;;;29.09;18.81
29879;BME280;16752;53.364;-1.488;2023-05-21T12:47:16;101206.53;;;29.77;18.76
29879;BME280;16752;53.364;-1.488;2023-05-21T12:50:13;101150.00;;;28.88;17.46
29879;BME280;16752;53.364;-1.488;2023-05-21T12:53:08;101177.59;;;29.71;17.52
29879;BME280;16752;53.364;-1.488;2023-05-21T12:55:53;101091.13;;;29.12;17.42
29879;BME280;16752;53.364;-1.488;2023-05-21T12:58:51;101092.94;;;28.44;18.38
29879;BME280;16752;53.364;-1.488;2023-05-21T13:01:38;101113.44;;;29.60;18.33
29879;BME280;16752;53.364;-1.488;2023-05-21T13:04:25;101181.38;;;27.78;19.68
29879;BME280;16752;53.364;-1.488;2023-05-21T13:07:17;101187.00;;;30.02;17.95
29879;BME280;16752;53.364;-1.488;2023-05-21T13:10:10;101191.44;;;30.87;17.92
29879;BME280;16752;53.364;-1.488;2023-05-21T13:12:57;101075.91;;;30.36;17.91
29879;BME280;16752;53.364;-1.488;2023-05-21T13:15:44;101108.25;;;29.52;17.35
29879;BME280;16752;53.364;-1.488;2023-05-21T13:18:28;101052.75;;;29.36;18.37
29879;BME280;16752;53.364;-1.488;2023-05-21T13:21:48;101075.53;;;29.01;17.67
29879;BME280;16752;53.364;-1.488;2023-05-21T13:24:35;101127.69;;;29.21;18.02
29879;BME280;16752;53.364;-1.488;2023-05-21T13:27:26;101179.41;;;30.77;17.02
29879;BME280;16752;53.364;-1.488;2023-05-21T13:30:13;101095.50;;;30.25;18.74
29879;BME280;16752;53.364;-1.488;2023-05-21T13:33:00;101130.91;;;30.82;18.18
29879;BME280;16752;53.364;-1.488;2023-05-21T13:35:44;101056.94;;;30.63;18.72
29879;BME280;16752;53.364;-1.488;2023-05-21T13:38:33;101162.03;;;31.42;18.45
29879;BME280;16752;53.364;-1.488;2023-05-21T13:41:17;101119.41;;;31.31;17.24
29879;BME280;16752;53.364;-1.488;2023-05-21T13:44:02;101111.72;;;31.28;16.61
29879;BME280;16752;53.364;-1.488;2023-05-21T13:46:46;101101.91;;;30.95;17.36
29879;BME280;16752;53.364;-1.488;2023-05-21T13:49:32;101155.56;;;31.05;18.35
29879;BME280;16752;53.364;-1.488;2023-05-21T13:52:16;101171.03;;;31.36;18.35
29879;BME280;16752;53.364;-1.488;2023-05-21T13:55:00;101133.00;;;31.81;17.57
29879;BME280;16752;53.364;-1.488;2023-05-21T13:57:45;101119.81;;;31.59;17.93
29879;BME280;16752;53.364;-1.488;2023-05-21T14:00:29;101157.56;;;32.11;16.82
29879;BME280;16752;53.364;-1.488;2023-05-21T14:03:13;101130.94;;;31.20;18.08
29879;BME280;16752;53.364;-1.488;2023-05-21T14:05:59;101159.84;;;31.89;16.90
29879;BME280;16752;53.364;-1.488;2023-05-21T14:08:44;101099.00;;;30.32;18.68
29879;BME280;16752;53.364;-1.488;2023-05-21T14:11:29;101121.50;;;31.29;19.59
29879;BME280;16752;53.364;-1.488;2023-05-21T14:14:14;101163.72;;;31.75;17.57
29879;BME280;16752;53.364;-1.488;2023-05-21T14:17:01;101134.25;;;31.53;18.54
29879;BME280;16752;53.364;-1.488;2023-05-21T14:19:45;101166.50;;;32.55;17.89
29879;BME280;16752;53.364;-1.488;2023-05-21T14:22:30;101120.59;;;32.53;17.05
29879;BME280;16752;53.364;-1.488;2023-05-21T14:25:14;101122.09;;;32.12;17.24
29879;BME280;16752;53.364;-1.488;2023-05-21T14:27:58;101155.97;;;31.78;18.43
29879;BME280;16752;53.364;-1.488;2023-05-21T14:30:42;101093.56;;;30.46;19.51
29879;BME280;16752;53.364;-1.488;2023-05-21T14:33:26;101067.13;;;29.57;20.45
29879;BME280;16752;53.364;-1.488;2023-05-21T14:36:10;101145.59;;;31.37;19.36
29879;BME280;16752;53.364;-1.488;2023-05-21T14:38:54;101108.94;;;31.03;19.78
29879;BME280;16752;53.364;-1.488;2023-05-21T14:41:38;101143.59;;;31.57;19.04
29879;BME280;16752;53.364;-1.488;2023-05-21T14:44:23;101083.28;;;30.81;19.76
29879;BME280;16752;53.364;-1.488;2023-05-21T14:47:07;101138.66;;;30.71;20.03
29879;BME280;16752;53.364;-1.488;2023-05-21T14:49:51;101129.78;;;30.45;20.30
29879;BME280;16752;53.364;-1.488;2023-05-21T14:52:35;101113.13;;;31.37;20.03
29879;BME280;16752;53.364;-1.488;2023-05-21T14:55:19;101066.50;;;30.52;20.00
29879;BME280;16752;53.364;-1.488;2023-05-21T14:58:05;101137.72;;;32.54;18.77
29879;BME280;16752;53.364;-1.488;2023-05-21T15:00:50;101132.13;;;32.85;18.75
29879;BME280;16752;53.364;-1.488;2023-05-21T15:03:34;101067.00;;;32.37;18.65
29879;BME280;16752;53.364;-1.488;2023-05-21T15:06:18;101112.81;;;32.93;19.64
29879;BME280;16752;53.364;-1.488;2023-05-21T15:09:02;101079.91;;;32.53;19.06
29879;BME280;16752;53.364;-1.488;2023-05-21T15:11:46;101099.81;;;32.84;17.84
29879;BME280;16752;53.364;-1.488;2023-05-21T15:14:35;101098.75;;;32.48;18.58
29879;BME280;16752;53.364;-1.488;2023-05-21T15:17:19;101126.91;;;33.97;16.88
29879;BME280;16752;53.364;-1.488;2023-05-21T15:20:03;101052.94;;;35.88;15.34
29879;BME280;16752;53.364;-1.488;2023-05-21T15:22:48;101105.72;;;36.81;14.81
29879;BME280;16752;53.364;-1.488;2023-05-21T15:25:32;101089.47;;;35.87;14.81
29879;BME280;16752;53.364;-1.488;2023-05-21T15:28:16;101116.22;;;35.39;15.63
29879;BME280;16752;53.364;-1.488;2023-05-21T15:31:00;101114.47;;;32.94;18.79
29879;BME280;16752;53.364;-1.488;2023-05-21T15:33:44;101073.56;;;32.77;18.97
29879;BME280;16752;53.364;-1.488;2023-05-21T15:36:29;101072.91;;;34.92;17.10
29879;BME280;16752;53.364;-1.488;2023-05-21T15:39:13;101055.63;;;36.26;14.19
29879;BME280;16752;53.364;-1.488;2023-05-21T15:41:57;101049.28;;;37.23;14.47
29879;BME280;16752;53.364;-1.488;2023-05-21T15:44:41;101104.00;;;35.92;14.77
29879;BME280;16752;53.364;-1.488;2023-05-21T15:47:25;101026.69;;;36.25;14.39
29879;BME280;16752;53.364;-1.488;2023-05-21T15:50:09;101082.31;;;37.17;13.60
29879;BME280;16752;53.364;-1.488;2023-05-21T15:52:54;101059.25;;;37.08;14.64
29879;BME280;16752;53.364;-1.488;2023-05-21T15:55:37;101103.50;;;37.05;14.55
29879;BME280;16752;53.364;-1.488;2023-05-21T15:58:21;101115.31;;;35.05;16.25
29879;BME280;16752;53.364;-1.488;2023-05-21T16:01:05;101067.06;;;33.62;17.25
29879;BME280;16752;53.364;-1.488;2023-05-21T16:03:49;101083.81;;;35.76;15.43
29879;BME280;16752;53.364;-1.488;2023-05-21T16:06:33;101053.06;;;36.63;14.75
29879;BME280;16752;53.364;-1.488;2023-05-21T16:09:17;101084.00;;;35.53;15.41
29879;BME280;16752;53.364;-1.488;2023-05-21T16:12:01;101010.78;;;34.78;15.97
29879;BME280;16752;53.364;-1.488;2023-05-21T16:15:11;101098.97;;;33.78;17.04
29879;BME280;16752;53.364;-1.488;2023-05-21T16:17:59;101090.56;;;34.50;16.98
29879;BME280;16752;53.364;-1.488;2023-05-21T16:20:43;101012.38;;;35.36;15.50
29879;BME280;16752;53.364;-1.488;2023-05-21T16:23:27;101028.09;;;34.72;15.53
29879;BME280;16752;53.364;-1.488;2023-05-21T16:26:11;101088.59;;;33.98;16.18
29879;BME280;16752;53.364;-1.488;2023-05-21T16:28:55;101012.97;;;32.65;17.66
29879;BME280;16752;53.364;-1.488;2023-05-21T16:31:39;100968.28;;;31.46;17.92
29879;BME280;16752;53.364;-1.488;2023-05-21T16:34:23;101053.25;;;31.20;18.84
29879;BME280;16752;53.364;-1.488;2023-05-21T16:37:08;101069.50;;;31.20;19.37
29879;BME280;16752;53.364;-1.488;2023-05-21T16:39:53;101058.94;;;30.74;19.59
29879;BME280;16752;53.364;-1.488;2023-05-21T16:42:37;101087.88;;;29.69;20.87
29879;BME280;16752;53.364;-1.488;2023-05-21T16:45:25;101099.91;;;30.00;21.63
29879;BME280;16752;53.364;-1.488;2023-05-21T16:48:10;101097.00;;;29.95;21.52
29879;BME280;16752;53.364;-1.488;2023-05-21T16:50:55;101051.72;;;29.44;21.44
29879;BME280;16752;53.364;-1.488;2023-05-21T16:53:39;101085.13;;;29.23;22.21
29879;BME280;16752;53.364;-1.488;2023-05-21T16:56:24;101002.84;;;28.73;22.75
29879;BME280;16752;53.364;-1.488;2023-05-21T16:59:09;101013.81;;;28.71;22.60
29879;BME280;16752;53.364;-1.488;2023-05-21T17:01:53;101071.66;;;29.30;21.69
29879;BME280;16752;53.364;-1.488;2023-05-21T17:04:40;100977.50;;;28.06;23.32
29879;BME280;16752;53.364;-1.488;2023-05-21T17:07:25;101026.88;;;28.68;22.66
29879;BME280;16752;53.364;-1.488;2023-05-21T17:10:09;101077.72;;;28.84;22.16
29879;BME280;16752;53.364;-1.488;2023-05-21T17:12:54;101078.44;;;28.45;23.01
29879;BME280;16752;53.364;-1.488;2023-05-21T17:15:38;101005.81;;;27.95;23.43
29879;BME280;16752;53.364;-1.488;2023-05-21T17:18:25;101050.66;;;28.10;23.27
29879;BME280;16752;53.364;-1.488;2023-05-21T17:21:19;100941.34;;;27.25;23.99
29879;BME280;16752;53.364;-1.488;2023-05-21T17:24:06;100985.34;;;26.96;24.38
29879;BME280;16752;53.364;-1.488;2023-05-21T17:26:52;101003.22;;;27.25;24.48
29879;BME280;16752;53.364;-1.488;2023-05-21T17:29:36;101086.03;;;27.72;24.43
29879;BME280;16752;53.364;-1.488;2023-05-21T17:32:20;101020.38;;;27.24;24.55
29879;BME280;16752;53.364;-1.488;2023-05-21T17:35:05;101098.53;;;27.58;24.55
29879;BME280;16752;53.364;-1.488;2023-05-21T17:37:49;101078.25;;;27.13;24.93
29879;BME280;16752;53.364;-1.488;2023-05-21T17:40:36;101044.31;;;27.12;24.11
29879;BME280;16752;53.364;-1.488;2023-05-21T17:43:21;101004.25;;;26.15;25.14
29879;BME280;16752;53.364;-1.488;2023-05-21T17:46:05;101092.44;;;27.07;24.82
29879;BME280;16752;53.364;-1.488;2023-05-21T17:48:49;100980.91;;;26.31;24.88
29879;BME280;16752;53.364;-1.488;2023-05-21T17:51:34;101038.13;;;26.61;24.76
29879;BME280;16752;53.364;-1.488;2023-05-21T17:54:19;101059.97;;;26.72;24.80
29879;BME280;16752;53.364;-1.488;2023-05-21T17:57:04;101008.81;;;26.15;25.48